Time,TemperatureF,DewpointF,PressureIn,WindDirection,WindDirectionDegrees,WindSpeedMPH,WindSpeedGustMPH,Humidity,HourlyPrecipIn,Conditions,Clouds,dailyrainin,SoftwareType,DateUTC
2013-01-09 01:17:00,30.7,26.4,29.93,WSW,247,0.0,0.0,84,0.00,,,0.00,WUHU140HW,2013-01-09 07:17:00,
2013-01-09 01:29:00,31.6,27.1,29.93,NW,315,0.0,0.0,83,0.00,,,0.00,WUHU140HW,2013-01-09 07:29:00,
2013-01-09 01:40:00,32.1,27.3,29.93,WNW,292,0.0,0.0,82,0.00,,,0.00,WUHU140HW,2013-01-09 07:40:00,
2013-01-09 01:52:00,31.6,26.7,29.93,West,270,0.0,0.0,81,0.00,,,0.00,WUHU140HW,2013-01-09 07:52:00,
2013-01-09 02:03:00,30.9,25.8,29.93,West,270,0.0,0.0,81,0.00,,,0.00,WUHU140HW,2013-01-09 08:03:00,
2013-01-09 02:14:00,30.2,25.0,29.93,WNW,292,0.0,0.0,81,0.00,,,0.00,WUHU140HW,2013-01-09 08:14:00,
2013-01-09 02:26:00,30.0,24.9,29.93,WNW,292,0.0,0.0,81,0.00,,,0.00,WUHU140HW,2013-01-09 08:26:00,
2013-01-09 02:37:00,28.5,23.7,29.93,WNW,292,0.0,0.0,82,0.00,,,0.00,WUHU140HW,2013-01-09 08:37:00,
2013-01-09 02:49:00,28.5,23.7,29.93,WNW,292,0.0,0.0,82,0.00,,,0.00,WUHU140HW,2013-01-09 08:49:00,
2013-01-09 03:00:00,28.0,23.2,29.95,WNW,292,0.0,0.0,82,0.00,,,0.00,WUHU140HW,2013-01-09 09:00:00,
2013-01-09 03:11:00,28.2,23.6,29.95,WSW,247,0.0,0.0,83,0.00,,,0.00,WUHU140HW,2013-01-09 09:11:00,
2013-01-09 03:23:00,28.2,23.6,29.95,WSW,247,0.0,0.0,83,0.00,,,0.00,WUHU140HW,2013-01-09 09:23:00,
2013-01-09 04:00:00,29.8,25.8,29.96,South,180,0.0,0.0,85,0.00,,,0.00,WUHU140HW,2013-01-09 10:00:00,
2013-01-09 04:12:00,30.2,26.2,29.96,South,180,0.0,0.0,85,0.00,,,0.00,WUHU140HW,2013-01-09 10:12:00,
2013-01-09 04:23:00,31.2,26.7,29.97,South,180,0.0,0.0,83,0.00,,,0.00,WUHU140HW,2013-01-09 10:23:00,
2013-01-09 04:35:00,32.7,26.9,29.96,South,180,0.0,0.0,79,0.00,,,0.00,WUHU140HW,2013-01-09 10:35:00,
2013-01-09 04:46:00,33.0,26.9,29.97,NW,315,0.0,0.0,78,0.00,,,0.00,WUHU140HW,2013-01-09 10:46:00,
2013-01-09 04:57:00,33.0,26.9,29.98,WNW,292,0.0,0.0,78,0.00,,,0.00,WUHU140HW,2013-01-09 10:57:00,
2013-01-09 05:09:00,32.9,26.7,29.98,SW,225,0.0,0.0,78,0.00,,,0.00,WUHU140HW,2013-01-09 11:09:00,
2013-01-09 05:20:00,32.5,26.1,29.98,WNW,292,0.0,0.0,77,0.00,,,0.00,WUHU140HW,2013-01-09 11:20:00,
2013-01-09 05:32:00,32.3,25.9,29.99,WNW,292,0.0,0.0,77,0.00,,,0.00,WUHU140HW,2013-01-09 11:32:00,
2013-01-09 05:43:00,32.3,25.6,30.00,WNW,292,0.0,0.0,76,0.00,,,0.00,WUHU140HW,2013-01-09 11:43:00,
2013-01-09 05:54:00,32.1,25.4,30.00,West,270,0.0,0.0,76,0.00,,,0.00,WUHU140HW,2013-01-09 11:54:00,
2013-01-09 06:06:00,32.1,25.1,30.01,WNW,292,0.0,0.0,75,0.00,,,0.00,WUHU140HW,2013-01-09 12:06:00,
2013-01-09 06:17:00,32.3,24.9,30.02,WNW,292,0.0,0.0,74,0.00,,,0.00,WUHU140HW,2013-01-09 12:17:00,
2013-01-09 06:29:00,31.8,24.1,30.03,West,270,0.0,0.0,73,0.00,,,0.00,WUHU140HW,2013-01-09 12:29:00,
2013-01-09 06:40:00,31.8,23.8,30.03,WNW,292,0.0,0.0,72,0.00,,,0.00,WUHU140HW,2013-01-09 12:40:00,
2013-01-09 06:51:00,31.6,23.6,30.04,WSW,247,0.0,0.0,72,0.00,,,0.00,WUHU140HW,2013-01-09 12:51:00,
2013-01-09 07:03:00,31.2,23.2,30.05,WNW,292,0.0,0.0,72,0.00,,,0.00,WUHU140HW,2013-01-09 13:03:00,
2013-01-09 07:14:00,30.9,23.2,30.06,West,270,0.0,0.0,73,0.00,,,0.00,WUHU140HW,2013-01-09 13:14:00,
2013-01-09 07:26:00,30.5,22.8,30.06,WNW,292,0.0,0.0,73,0.00,,,0.00,WUHU140HW,2013-01-09 13:26:00,
2013-01-09 07:37:00,30.3,22.7,30.06,WNW,292,0.0,0.0,73,0.00,,,0.00,WUHU140HW,2013-01-09 13:37:00,
2013-01-09 07:49:00,30.0,22.3,30.06,WSW,247,0.0,0.0,73,0.00,,,0.00,WUHU140HW,2013-01-09 13:49:00,
2013-01-09 08:00:00,29.8,22.5,30.08,West,270,0.0,0.0,74,0.00,,,0.00,WUHU140HW,2013-01-09 14:00:00,
2013-01-09 08:11:00,30.0,22.6,30.09,WNW,292,0.0,0.0,74,0.00,,,0.00,WUHU140HW,2013-01-09 14:11:00,
2013-01-09 08:23:00,31.1,22.7,30.09,WNW,292,0.0,0.0,71,0.00,,,0.00,WUHU140HW,2013-01-09 14:23:00,
2013-01-09 08:34:00,32.1,23.5,30.10,WNW,292,0.0,0.0,70,0.00,,,0.00,WUHU140HW,2013-01-09 14:34:00,
2013-01-09 08:46:00,32.9,23.4,30.10,West,270,0.0,0.0,68,0.00,,,0.00,WUHU140HW,2013-01-09 14:46:00,
2013-01-09 08:57:00,33.4,23.2,30.11,WNW,292,0.0,0.0,66,0.00,,,0.00,WUHU140HW,2013-01-09 14:57:00,
2013-01-09 09:08:00,33.4,22.8,30.11,WNW,292,0.0,0.0,65,0.00,,,0.00,WUHU140HW,2013-01-09 15:08:00,
2013-01-09 09:20:00,33.4,22.8,30.12,WNW,292,0.0,0.0,65,0.00,,,0.00,WUHU140HW,2013-01-09 15:20:00,
2013-01-09 09:31:00,33.4,22.8,30.12,WNW,292,0.0,0.0,65,0.00,,,0.00,WUHU140HW,2013-01-09 15:31:00,
2013-01-09 09:43:00,33.4,22.8,30.13,WNW,292,0.0,0.0,65,0.00,,,0.00,WUHU140HW,2013-01-09 15:43:00,
2013-01-09 09:54:00,33.0,22.5,30.13,WNW,292,0.0,0.0,65,0.00,,,0.00,WUHU140HW,2013-01-09 15:54:00,
2013-01-09 10:06:00,33.4,22.1,30.14,WNW,292,0.0,0.0,63,0.00,,,0.00,WUHU140HW,2013-01-09 16:06:00,
2013-01-09 10:17:00,33.4,22.1,30.14,WNW,292,0.0,0.0,63,0.00,,,0.00,WUHU140HW,2013-01-09 16:17:00,
2013-01-09 10:28:00,33.0,21.8,30.14,NW,315,0.0,0.0,63,0.00,,,0.00,WUHU140HW,2013-01-09 16:28:00,
2013-01-09 10:40:00,32.9,22.0,30.15,West,270,0.0,0.0,64,0.00,,,0.00,WUHU140HW,2013-01-09 16:40:00,
2013-01-09 10:51:00,33.2,21.9,30.17,WNW,292,0.0,0.0,63,0.00,,,0.00,WUHU140HW,2013-01-09 16:51:00,
2013-01-09 11:03:00,33.6,22.2,30.18,WNW,292,0.0,0.0,63,0.00,,,0.00,WUHU140HW,2013-01-09 17:03:00,
2013-01-09 11:14:00,33.9,22.6,30.18,West,270,0.0,0.0,63,0.00,,,0.00,WUHU140HW,2013-01-09 17:14:00,
2013-01-09 11:26:00,34.3,23.0,30.19,West,270,0.0,0.0,63,0.00,,,0.00,WUHU140HW,2013-01-09 17:26:00,
2013-01-09 11:37:00,34.3,22.8,30.19,West,270,0.0,0.0,62,0.00,,,0.00,WUHU140HW,2013-01-09 17:37:00,
2013-01-09 11:48:00,34.5,22.8,30.20,NW,315,0.0,0.0,62,0.00,,,0.00,WUHU140HW,2013-01-09 17:48:00,
2013-01-09 12:00:00,34.7,23.0,30.20,NW,315,0.0,0.0,62,0.00,,,0.00,WUHU140HW,2013-01-09 18:00:00,